Time;durP1;ratioP1;P1;durP2;ratioP2;P2;SDS_P1;SDS_P2;PMS_P1;PMS_P2;Temp;Humidity;BMP_temperature;BMP_pressure;BME280_temperature;BME280_humidity;BME280_pressure;Samples;Min_cycle;Max_cycle;Signal;HPM_P1;HPM_P2
2022/02/08 00:00:10;;;;;;;8.73;2.70;;;;;;;7.10;71.03;100645.03;5092944;28;20113;-60
2022/02/08 00:02:47;;;;;;;8.30;2.38;;;;;;;7.13;71.04;100652.81;5093222;28;20056;-60
2022/02/08 00:05:15;;;;;;;14.88;3.03;;;;;;;7.12;71.07;100651.09;5093095;28;20095;-59
2022/02/08 00:07:46;;;;;;;13.43;2.83;;;;;;;7.13;70.36;100644.94;5092674;28;20043;-59
2022/02/08 00:10:13;;;;;;;9.20;2.88;;;;;;;7.16;71.12;100647.50;5092706;28;20055;-61
2022/02/08 00:12:39;;;;;;;11.90;3.13;;;;;;;7.16;70.86;100642.25;5092684;28;20090;-60
2022/02/08 00:15:06;;;;;;;11.95;2.80;;;;;;;7.20;71.31;100644.75;5092842;28;20530;-59
2022/02/08 00:17:34;;;;;;;13.77;3.13;;;;;;;7.19;71.10;100640.44;5092333;28;20674;-61
2022/02/08 00:20:03;;;;;;;8.32;2.58;;;;;;;7.20;70.84;100648.25;5092381;28;20121;-60
2022/02/08 00:22:30;;;;;;;13.80;3.28;;;;;;;7.21;71.27;100649.13;5092622;28;20048;-59
2022/02/08 00:24:57;;;;;;;11.95;3.03;;;;;;;7.22;71.55;100640.34;5092254;28;20558;-61
2022/02/08 00:27:23;;;;;;;12.98;3.00;;;;;;;7.23;71.34;100649.91;5092706;28;20101;-60
2022/02/08 00:29:50;;;;;;;12.25;3.50;;;;;;;7.25;71.34;100648.97;5092483;28;20105;-59
2022/02/08 00:32:17;;;;;;;17.20;3.33;;;;;;;7.25;71.38;100646.34;5092579;28;20535;-60
2022/02/08 00:34:43;;;;;;;12.95;3.85;;;;;;;7.26;71.31;100645.44;5092160;28;20485;-63
2022/02/08 00:37:10;;;;;;;12.18;3.65;;;;;;;7.28;71.85;100643.66;5092264;28;20097;-60
2022/02/08 00:39:37;;;;;;;11.90;3.35;;;;;;;7.30;71.63;100647.06;5092000;28;20055;-61
2022/02/08 00:42:09;;;;;;;10.05;3.50;;;;;;;7.29;71.90;100647.97;5092256;28;20101;-62
2022/02/08 00:44:51;;;;;;;12.27;3.47;;;;;;;7.31;71.97;100640.09;5092194;28;20390;-60
2022/02/08 00:47:28;;;;;;;16.85;3.97;;;;;;;7.32;72.07;100636.56;5092275;28;20351;-60
2022/02/08 00:50:04;;;;;;;16.77;3.85;;;;;;;7.33;72.00;100642.66;5092045;28;20385;-59
2022/02/08 00:52:31;;;;;;;21.40;4.40;;;;;;;7.29;72.08;100634.88;5091592;28;20101;-61
2022/02/08 00:54:58;;;;;;;20.98;5.38;;;;;;;7.26;72.06;100641.97;5090280;28;20043;-61
2022/02/08 00:57:24;;;;;;;16.20;4.15;;;;;;;7.23;72.37;100647.31;5092072;28;20048;-61
2022/02/08 00:59:51;;;;;;;18.50;4.32;;;;;;;7.19;72.47;100635.19;5091909;28;20036;-60
2022/02/08 01:02:18;;;;;;;19.55;5.25;;;;;;;7.11;73.06;100633.66;5092463;28;20048;-58
2022/02/08 01:04:52;;;;;;;17.55;5.78;;;;;;;7.04;73.52;100632.13;5091844;28;20095;-60
2022/02/08 01:07:19;;;;;;;26.70;6.35;;;;;;;7.00;74.01;100628.72;5090815;28;20121;-58
2022/02/08 01:12:16;;;;;;;19.05;6.40;;;;;;;6.88;74.40;100632.53;5091676;28;20105;-59
2022/02/08 01:14:45;;;;;;;26.83;8.30;;;;;;;6.83;74.84;100629.19;5091137;28;20435;-61
2022/02/08 01:17:14;;;;;;;18.88;7.53;;;;;;;6.80;75.43;100629.25;5071232;28;20041;-59
2022/02/08 01:19:49;;;;;;;18.65;6.82;;;;;;;6.77;75.75;100630.22;5086621;28;20452;-62
2022/02/08 01:22:15;;;;;;;18.35;6.78;;;;;;;6.77;75.67;100632.00;5071494;28;20044;-60
2022/02/08 01:24:43;;;;;;;16.30;6.60;;;;;;;6.76;76.15;100635.47;5071167;28;20052;-60
2022/02/08 01:27:12;;;;;;;24.42;7.47;;;;;;;6.73;76.37;100627.72;5090465;28;20581;-59
2022/02/08 01:33:01;;;;;;;17.55;7.10;;;;;;;6.74;76.49;100624.22;5091366;28;20109;-61
2022/02/08 01:35:27;;;;;;;26.92;7.28;;;;;;;6.75;76.71;100625.91;5090382;28;20044;-59
2022/02/08 01:38:06;;;;;;;20.35;7.50;;;;;;;6.76;76.57;100617.16;5090913;28;20572;-59
2022/02/08 01:40:59;;;;;;;25.48;8.02;;;;;;;6.76;76.61;100617.16;5090874;28;20044;-59
2022/02/08 01:46:27;;;;;;;25.60;7.68;;;;;;;6.74;77.08;100609.38;5090743;28;20113;-62
2022/02/08 01:49:13;;;;;;;16.30;7.28;;;;;;;6.78;76.93;100610.16;5091241;28;20168;-61
2022/02/08 01:51:40;;;;;;;30.42;7.70;;;;;;;6.79;76.94;100614.47;5091273;28;20545;-59
2022/02/08 01:54:06;;;;;;;20.52;8.00;;;;;;;6.82;76.97;100626.59;5091071;28;20051;-63
2022/02/08 01:56:34;;;;;;;25.95;8.40;;;;;;;6.85;77.07;100621.31;5090596;28;20047;-59
2022/02/08 01:59:01;;;;;;;27.13;7.95;;;;;;;6.87;76.96;100617.75;5090018;28;20056;-59
2022/02/08 02:01:27;;;;;;;19.73;7.90;;;;;;;6.89;76.91;100621.16;5090865;28;20051;-62
2022/02/08 02:03:54;;;;;;;24.92;8.27;;;;;;;6.91;77.43;100622.00;5089697;28;20097;-60
2022/02/08 02:06:36;;;;;;;29.25;8.75;;;;;;;6.96;77.23;100616.63;5090594;28;20044;-59
2022/02/08 02:09:04;;;;;;;19.63;8.40;;;;;;;6.99;77.16;100610.47;5090540;28;20731;-59
2022/02/08 02:11:31;;;;;;;22.65;8.85;;;;;;;7.02;77.02;100607.72;5089588;28;20078;-59
2022/02/08 02:13:58;;;;;;;23.50;9.90;;;;;;;7.04;77.40;100611.19;5090846;28;20101;-61
2022/02/08 02:16:47;;;;;;;22.42;10.05;;;;;;;7.06;77.27;100605.91;5089277;28;20048;-59
2022/02/08 02:19:14;;;;;;;28.02;9.88;;;;;;;7.08;77.69;100615.44;5090524;28;20040;-61
2022/02/08 02:21:40;;;;;;;25.92;10.93;;;;;;;7.13;77.44;100610.91;5090355;28;20439;-59
2022/02/08 02:24:07;;;;;;;25.63;10.27;;;;;;;7.16;77.38;100615.19;5090970;28;20114;-60
2022/02/08 02:26:33;;;;;;;30.13;10.45;;;;;;;7.20;77.18;100610.72;5090265;28;20561;-60
2022/02/08 02:29:00;;;;;;;25.40;9.80;;;;;;;7.22;77.22;100595.84;5090923;28;20105;-60
2022/02/08 02:31:27;;;;;;;20.50;9.85;;;;;;;7.25;77.28;100593.13;5090393;28;20085;-59
2022/02/08 02:33:53;;;;;;;24.65;9.82;;;;;;;7.28;77.13;100598.25;5090510;28;20051;-59
2022/02/08 02:36:20;;;;;;;30.02;11.00;;;;;;;7.27;77.43;100592.19;5090092;28;20044;-59
2022/02/08 02:38:46;;;;;;;27.73;10.95;;;;;;;7.28;77.20;100599.13;5090623;28;20109;-61
2022/02/08 02:41:14;;;;;;;27.00;10.88;;;;;;;7.32;76.97;100588.56;5090355;28;20040;-60
2022/02/08 02:43:42;;;;;;;26.70;11.25;;;;;;;7.33;76.97;100588.50;5089187;28;20048;-60
2022/02/08 02:46:08;;;;;;;21.52;10.70;;;;;;;7.32;76.97;100592.03;5088883;28;20083;-61
2022/02/08 02:48:35;;;;;;;23.92;10.13;;;;;;;7.32;77.27;100585.94;5090293;28;20048;-60
2022/02/08 02:51:01;;;;;;;23.25;9.50;;;;;;;7.32;76.97;100597.28;5090213;28;20051;-59
2022/02/08 02:53:30;;;;;;;21.30;10.02;;;;;;;7.29;77.19;100594.75;5090389;28;20516;-57
2022/02/08 02:55:56;;;;;;;21.85;9.63;;;;;;;7.29;77.08;100597.38;5088909;28;20051;-59
2022/02/08 02:58:28;;;;;;;18.85;9.27;;;;;;;7.24;77.49;100587.03;5090385;28;20043;-59
2022/02/08 03:18:33;;;;;;;20.48;9.23;;;;;;;7.14;78.43;100568.09;5093885;28;20062;-60
2022/02/08 03:20:26;;;;;;;19.48;8.82;;;;;;;7.15;78.30;100574.22;5092899;28;20052;-59
2022/02/08 03:22:52;;;;;;;18.02;8.73;;;;;;;7.16;78.75;100561.09;5093880;28;20048;-58
2022/02/08 03:25:19;;;;;;;12.32;8.05;;;;;;;7.17;79.09;100581.13;5093342;28;20040;-60
2022/02/08 03:27:45;;;;;;;17.55;8.23;;;;;;;7.19;79.38;100574.97;5093594;28;20048;-59
2022/02/08 03:30:12;;;;;;;20.27;9.43;;;;;;;7.20;79.48;100571.44;5093472;28;20101;-59
2022/02/08 03:32:39;;;;;;;14.13;8.70;;;;;;;7.24;79.47;100573.06;5092546;28;20056;-59
2022/02/08 03:35:08;;;;;;;14.48;7.95;;;;;;;7.26;79.25;100573.91;5093505;28;20056;-60
2022/02/08 03:37:35;;;;;;;15.60;8.25;;;;;;;7.29;79.43;100573.81;5092362;28;20081;-60
2022/02/08 03:40:07;;;;;;;14.52;8.18;;;;;;;7.31;79.57;100577.22;5093268;28;20512;-60
2022/02/08 03:42:57;;;;;;;16.73;8.85;;;;;;;7.35;79.62;100581.47;5092164;28;20094;-61
2022/02/08 03:45:23;;;;;;;15.18;9.10;;;;;;;7.38;79.48;100578.78;5092938;28;20052;-61
2022/02/08 03:47:50;;;;;;;15.25;8.45;;;;;;;7.40;79.44;100582.19;5093385;28;20481;-59
2022/02/08 03:50:17;;;;;;;14.98;9.43;;;;;;;7.43;80.00;100584.72;5093064;28;20086;-60
2022/02/08 03:52:43;;;;;;;18.73;9.75;;;;;;;7.45;79.74;100589.91;5091832;28;20059;-60
2022/02/08 03:55:11;;;;;;;16.52;8.27;;;;;;;7.48;79.98;100579.31;5092904;28;20492;-60
2022/02/08 03:57:37;;;;;;;16.65;9.45;;;;;;;7.51;79.94;100574.00;5092975;28;20404;-60
2022/02/08 04:00:04;;;;;;;17.13;9.15;;;;;;;7.53;80.25;100579.19;5092833;28;20052;-60
2022/02/08 04:02:45;;;;;;;16.77;9.35;;;;;;;7.54;80.03;100570.41;5091770;28;20052;-60
2022/02/08 04:08:06;;;;;;;16.10;9.13;;;;;;;7.62;80.40;100554.47;5092631;28;20044;-60
2022/02/08 04:10:33;;;;;;;18.65;10.35;;;;;;;7.64;80.26;100558.75;5092605;28;20484;-58
2022/02/08 04:13:17;;;;;;;20.88;11.48;;;;;;;7.66;80.36;100554.31;5093014;28;20052;-59
2022/02/08 04:18:33;;;;;;;17.25;11.60;;;;;;;7.73;80.22;100556.75;5092658;28;20101;-59
2022/02/08 04:34:43;;;;;;;20.58;13.52;;;;;;;7.93;80.67;100540.38;5092516;28;20097;-60
2022/02/08 04:42:35;;;;;;;20.90;11.10;;;;;;;8.01;80.75;100555.84;5092276;28;20545;-59
2022/02/08 04:47:47;;;;;;;32.72;16.23;;;;;;;8.06;80.72;100546.91;5092135;28;20048;-60
2022/02/08 04:50:17;;;;;;;31.38;15.48;;;;;;;8.10;80.79;100550.28;5091920;28;20044;-59
2022/02/08 04:52:44;;;;;;;43.13;16.23;;;;;;;8.12;80.67;100555.47;5092156;28;20101;-60
2022/02/08 04:57:48;;;;;;;29.00;16.30;;;;;;;8.16;80.99;100536.09;5091972;28;20123;-59
2022/02/08 05:00:24;;;;;;;31.58;15.52;;;;;;;8.20;81.01;100546.44;5090591;28;20048;-59
2022/02/08 05:35:43;;;;;;;35.35;20.60;;;;;;;8.48;81.56;100534.97;5091322;28;20094;-60
2022/02/08 05:46:55;;;;;;;38.10;22.27;;;;;;;8.67;81.18;100538.75;5091194;28;20071;-59
2022/02/08 05:49:05;;;;;;;42.20;21.95;;;;;;;8.70;81.33;100533.34;5087672;28;20161;-59
2022/02/08 05:54:18;;;;;;;36.42;21.35;;;;;;;8.77;81.20;100539.25;5091031;28;20048;-60
2022/02/08 05:56:52;;;;;;;34.88;21.30;;;;;;;8.81;81.58;100548.72;5091384;28;20097;-61
2022/02/08 05:59:22;;;;;;;39.97;22.85;;;;;;;8.79;81.53;100535.66;5090999;28;20106;-59
2022/02/08 06:01:49;;;;;;;40.40;23.15;;;;;;;8.83;81.41;100549.53;5090757;28;20464;-60
2022/02/08 06:04:16;;;;;;;39.92;22.20;;;;;;;8.87;81.50;100548.50;5090769;28;20044;-59
2022/02/08 06:06:43;;;;;;;34.08;21.00;;;;;;;8.92;81.54;100556.19;5090454;28;20462;-62
2022/02/08 06:09:10;;;;;;;33.72;21.90;;;;;;;8.94;81.53;100547.34;5090625;28;20101;-60
2022/02/08 06:11:38;;;;;;;41.72;22.33;;;;;;;8.98;81.50;100534.97;5091033;28;20044;-60
2022/02/08 06:14:06;;;;;;;35.28;21.55;;;;;;;9.01;81.52;100541.88;5091014;28;20766;-59
2022/02/08 06:16:34;;;;;;;39.88;23.73;;;;;;;9.02;81.38;100547.06;5089314;28;20044;-59
2022/02/08 06:19:03;;;;;;;37.40;22.70;;;;;;;9.06;81.41;100538.16;5089420;28;20377;-58
2022/02/08 06:21:30;;;;;;;35.20;22.35;;;;;;;9.10;81.48;100544.16;5088812;28;20063;-60
2022/02/08 06:23:56;;;;;;;36.00;21.98;;;;;;;9.13;81.35;100542.25;5090803;28;20048;-59
2022/02/08 06:26:24;;;;;;;38.00;23.15;;;;;;;9.16;81.26;100529.94;5090558;28;20082;-58
2022/02/08 06:29:08;;;;;;;38.05;22.05;;;;;;;9.19;81.31;100525.41;5090611;28;20055;-59
2022/02/08 06:31:35;;;;;;;41.13;22.15;;;;;;;9.22;81.46;100522.66;5090475;28;20101;-59
2022/02/08 06:34:01;;;;;;;35.25;22.42;;;;;;;9.25;81.37;100530.44;5090672;28;20450;-60
2022/02/08 06:36:28;;;;;;;39.10;23.17;;;;;;;9.27;81.36;100532.16;5090002;28;20109;-59
2022/02/08 06:38:55;;;;;;;44.10;23.08;;;;;;;9.28;81.22;100533.84;5090537;28;20048;-60
2022/02/08 06:41:21;;;;;;;39.88;23.42;;;;;;;9.32;81.81;100556.47;5089815;28;20040;-62
2022/02/08 06:43:48;;;;;;;35.08;22.38;;;;;;;9.33;81.63;100553.78;5090576;28;20074;-60
2022/02/08 06:46:15;;;;;;;34.88;22.58;;;;;;;9.37;81.33;100557.13;5090009;28;20094;-58
2022/02/08 06:48:41;;;;;;;37.90;21.20;;;;;;;9.39;81.23;100563.19;5090645;28;20082;-59
2022/02/08 06:51:08;;;;;;;38.72;22.65;;;;;;;9.43;81.31;100574.44;5093168;28;20492;-60
2022/02/08 06:53:34;;;;;;;37.45;21.13;;;;;;;9.46;81.20;100569.06;5094377;28;20048;-59
2022/02/08 06:56:02;;;;;;;35.92;21.92;;;;;;;9.47;81.23;100566.38;5094331;28;20048;-59
2022/02/08 06:58:35;;;;;;;38.10;22.30;;;;;;;9.48;81.27;100562.84;5094428;28;20048;-59
2022/02/08 07:01:04;;;;;;;33.25;21.17;;;;;;;9.54;81.17;100568.75;5092836;28;20101;-59
2022/02/08 07:03:31;;;;;;;32.42;19.50;;;;;;;9.56;81.05;100569.53;5092616;28;20113;-59
2022/02/08 07:05:57;;;;;;;36.13;21.52;;;;;;;9.58;81.21;100572.97;5093686;28;20569;-61
2022/02/08 07:08:24;;;;;;;37.95;20.17;;;;;;;9.61;81.06;100572.88;5094243;28;20048;-60
2022/02/08 07:10:51;;;;;;;37.55;20.05;;;;;;;9.63;81.08;100568.38;5093686;28;20059;-59
2022/02/08 07:13:17;;;;;;;33.67;20.48;;;;;;;9.64;81.01;100572.72;5094170;28;20040;-59
2022/02/08 07:15:44;;;;;;;34.30;20.42;;;;;;;9.65;80.97;100566.56;5093704;28;20064;-60
2022/02/08 07:18:10;;;;;;;33.65;19.98;;;;;;;9.68;81.02;100566.41;5092911;28;20044;-59
2022/02/08 07:20:38;;;;;;;31.15;19.40;;;;;;;9.72;80.91;100568.00;5093638;28;20400;-60
2022/02/08 07:23:05;;;;;;;36.03;19.60;;;;;;;9.73;80.83;100575.00;5093953;28;20052;-59
2022/02/08 07:25:33;;;;;;;35.38;20.25;;;;;;;9.76;80.81;100555.63;5093877;28;20048;-60
2022/02/08 07:28:00;;;;;;;35.28;19.25;;;;;;;9.80;80.77;100551.06;5092309;28;20060;-59
2022/02/08 07:30:29;;;;;;;25.25;17.83;;;;;;;9.81;80.77;100556.28;5092355;28;20052;-59
2022/02/08 07:32:56;;;;;;;30.90;18.65;;;;;;;9.83;80.44;100559.69;5093705;28;20078;-58
2022/02/08 07:38:17;;;;;;;34.83;19.05;;;;;;;9.88;80.53;100552.47;5073256;28;20477;-59
2022/02/08 07:43:19;;;;;;;30.20;19.63;;;;;;;9.89;80.42;100551.56;5093202;28;20051;-59
2022/02/08 07:45:46;;;;;;;33.97;19.10;;;;;;;9.92;80.28;100555.84;5092011;28;20083;-61
2022/02/08 07:48:13;;;;;;;29.73;17.80;;;;;;;9.94;80.41;100551.34;5093517;28;20131;-59
2022/02/08 07:50:46;;;;;;;31.60;19.63;;;;;;;9.95;80.39;100545.19;5093536;28;20052;-58
2022/02/08 07:53:14;;;;;;;28.05;17.70;;;;;;;9.97;80.29;100543.34;5093809;28;20056;-61
2022/02/08 07:55:42;;;;;;;31.00;19.05;;;;;;;9.96;80.12;100546.91;5093140;28;20605;-61
2022/02/08 07:58:08;;;;;;;31.83;18.38;;;;;;;9.98;80.45;100547.69;5071940;28;20090;-59
2022/02/08 08:00:35;;;;;;;34.58;19.30;;;;;;;10.00;80.15;100552.88;5072040;28;20063;-59
2022/02/08 08:03:06;;;;;;;33.40;18.40;;;;;;;10.01;80.06;100550.19;5072867;28;20131;-59
2022/02/08 08:05:32;;;;;;;28.83;16.63;;;;;;;10.06;80.39;100565.78;5087477;28;20044;-59
2022/02/08 08:07:59;;;;;;;28.27;17.65;;;;;;;10.08;80.18;100570.97;5093021;28;20488;-60
2022/02/08 08:10:30;;;;;;;28.08;16.88;;;;;;;10.10;80.00;100566.50;5093052;28;20044;-59
2022/02/08 08:12:59;;;;;;;31.10;17.05;;;;;;;10.13;79.96;100569.03;5091682;28;20048;-59
2022/02/08 08:15:53;;;;;;;24.58;16.15;;;;;;;10.14;79.76;100570.72;5091550;28;20052;-60
2022/02/08 08:18:44;;;;;;;29.27;15.65;;;;;;;10.17;79.80;100575.88;5093020;28;20044;-59
2022/02/08 08:21:10;;;;;;;33.42;16.95;;;;;;;10.18;79.66;100574.94;5092549;28;20040;-59
2022/02/08 08:23:37;;;;;;;25.40;14.40;;;;;;;10.20;79.75;100575.72;5092586;28;20043;-58
2022/02/08 08:26:03;;;;;;;25.60;14.70;;;;;;;10.20;79.72;100565.19;5092733;28;20044;-59
2022/02/08 08:28:30;;;;;;;24.73;15.35;;;;;;;10.21;79.67;100571.31;5092586;28;20097;-59
2022/02/08 08:30:57;;;;;;;21.42;13.48;;;;;;;10.21;79.68;100577.41;5092730;28;20052;-58
2022/02/08 08:33:24;;;;;;;18.08;13.50;;;;;;;10.24;80.02;100584.34;5092633;28;20105;-59
2022/02/08 08:36:04;;;;;;;23.15;13.63;;;;;;;10.27;80.02;100584.19;5092693;28;20126;-58
2022/02/08 08:38:32;;;;;;;26.42;13.48;;;;;;;10.31;79.88;100572.63;5092327;28;20101;-60
2022/02/08 08:43:43;;;;;;;21.58;12.18;;;;;;;10.37;79.81;100585.53;5091943;28;20093;-60
2022/02/08 08:53:58;;;;;;;28.73;12.68;;;;;;;10.45;79.26;100585.22;5092304;28;20047;-59
2022/02/08 08:56:25;;;;;;;26.73;12.25;;;;;;;10.47;79.07;100583.38;5092174;28;20193;-59
2022/02/08 08:58:51;;;;;;;21.77;10.90;;;;;;;10.49;79.07;100588.56;5091678;28;20060;-59
2022/02/08 09:01:18;;;;;;;19.95;11.32;;;;;;;10.49;79.05;100594.72;5091730;28;20093;-59
2022/02/08 09:03:47;;;;;;;20.95;10.82;;;;;;;10.50;79.19;100588.50;5091684;28;20124;-61
2022/02/08 09:06:20;;;;;;;17.92;11.80;;;;;;;10.51;79.16;100587.59;5090800;28;20090;-60
2022/02/08 09:08:47;;;;;;;17.92;11.00;;;;;;;10.54;79.16;100584.81;5091680;28;20044;-60
2022/02/08 09:13:54;;;;;;;21.08;11.10;;;;;;;10.59;79.14;100595.16;5090876;28;20079;-61
2022/02/08 09:16:28;;;;;;;20.83;10.63;;;;;;;10.63;79.16;100588.84;5091521;28;20051;-61
2022/02/08 09:29:47;;;;;;;19.77;10.52;;;;;;;10.77;78.63;100585.59;5091129;28;20051;-58
2022/02/08 09:32:20;;;;;;;16.70;10.07;;;;;;;10.81;78.92;100589.78;5091448;28;20043;-59
2022/02/08 09:34:47;;;;;;;16.08;9.68;;;;;;;10.86;79.24;100578.19;5090200;28;20054;-60
2022/02/08 09:37:16;;;;;;;18.25;10.70;;;;;;;10.87;78.79;100575.50;5090264;28;20121;-59
2022/02/08 09:39:46;;;;;;;17.73;10.20;;;;;;;10.91;78.99;100557.78;5091157;28;20051;-60
2022/02/08 09:42:14;;;;;;;17.77;9.38;;;;;;;10.97;79.02;100572.44;5089772;28;20504;-59
2022/02/08 09:44:41;;;;;;;21.05;9.23;;;;;;;11.02;79.13;100573.94;5091135;28;20047;-60
2022/02/08 09:47:16;;;;;;;19.45;9.02;;;;;;;11.08;79.03;100589.50;5090020;28;20048;-60
2022/02/08 09:49:52;;;;;;;20.38;10.38;;;;;;;11.09;78.87;100592.97;5089639;28;20507;-61
2022/02/08 09:52:20;;;;;;;15.05;9.25;;;;;;;11.15;78.34;100597.97;5091102;28;20055;-60
2022/02/08 09:54:47;;;;;;;16.52;9.73;;;;;;;11.17;78.08;100597.88;5091261;28;20058;-59
2022/02/08 09:57:14;;;;;;;17.65;8.90;;;;;;;11.20;78.03;100608.28;5090930;28;20071;-60
2022/02/08 09:59:43;;;;;;;16.33;9.25;;;;;;;11.19;77.87;100599.53;5090917;28;20054;-60
2022/02/08 10:02:09;;;;;;;24.98;9.90;;;;;;;11.21;77.72;100616.13;5090749;28;20051;-60
2022/02/08 10:04:36;;;;;;;20.73;8.98;;;;;;;11.25;78.16;100608.09;5091265;28;20112;-60
2022/02/08 10:07:10;;;;;;;16.67;8.85;;;;;;;11.23;77.03;100623.97;5090935;28;20043;-60
2022/02/08 10:09:37;;;;;;;16.20;8.60;;;;;;;11.26;77.65;100618.56;5089581;28;20051;-59
2022/02/08 10:12:05;;;;;;;17.52;8.23;;;;;;;11.28;77.68;100621.09;5090670;28;20048;-60
2022/02/08 10:22:49;;;;;;;18.30;7.85;;;;;;;11.33;77.44;100609.41;5090681;28;20044;-62
2022/02/08 10:28:11;;;;;;;17.40;7.95;;;;;;;11.33;76.44;100617.31;5094986;28;20048;-59
2022/02/08 10:39:18;;;;;;;16.05;8.45;;;;;;;11.45;77.37;100607.16;5091410;28;20052;-59
2022/02/08 10:41:48;;;;;;;17.95;8.63;;;;;;;11.41;76.58;100616.13;5094415;28;20059;-61
2022/02/08 10:44:15;;;;;;;18.92;7.85;;;;;;;11.43;77.07;100623.03;5093595;28;20121;-61
2022/02/08 10:46:42;;;;;;;18.75;8.23;;;;;;;11.41;77.08;100617.00;5094518;28;20130;-60
2022/02/08 10:49:13;;;;;;;16.55;7.97;;;;;;;11.38;76.78;100619.78;5094243;28;20048;-59
2022/02/08 10:52:03;;;;;;;17.83;8.18;;;;;;;11.41;76.97;100606.44;5093270;28;20074;-60
2022/02/08 10:54:44;;;;;;;13.43;7.55;;;;;;;11.44;76.99;100600.19;5094644;28;20057;-60
2022/02/08 10:57:17;;;;;;;13.70;7.90;;;;;;;11.45;76.73;100596.59;5094531;28;20055;-61
2022/02/08 10:59:52;;;;;;;15.20;7.43;;;;;;;11.44;76.83;100601.00;5092899;28;20114;-60
2022/02/08 11:03:05;;;;;;;13.70;7.32;;;;;;;11.47;76.97;100597.38;5092970;28;20470;-59
2022/02/08 11:05:50;;;;;;;15.50;8.13;;;;;;;11.48;76.06;100596.47;5086044;28;20048;-60
2022/02/08 11:16:13;;;;;;;17.33;7.75;;;;;;;11.51;74.97;100601.56;5094229;28;20044;-61
2022/02/08 11:19:02;;;;;;;15.70;8.02;;;;;;;11.51;75.20;100609.47;5094021;28;20060;-61
2022/02/08 11:21:45;;;;;;;14.88;8.05;;;;;;;11.56;76.48;100598.72;5093599;28;20105;-60
2022/02/08 11:24:26;;;;;;;12.82;7.28;;;;;;;11.54;74.76;100617.25;5092842;28;20044;-59
2022/02/08 11:27:01;;;;;;;14.68;7.03;;;;;;;11.57;76.59;100601.31;5094225;28;20447;-59
2022/02/08 11:29:35;;;;;;;15.00;7.28;;;;;;;11.56;76.60;100594.28;5093701;28;20094;-59
2022/02/08 11:32:18;;;;;;;17.77;7.72;;;;;;;11.56;75.51;100598.72;5092528;28;20051;-60
2022/02/08 11:43:36;;;;;;;13.15;6.70;;;;;;;11.66;76.94;100592.06;5093619;28;20040;-60
2022/02/08 11:46:28;;;;;;;10.75;6.25;;;;;;;11.70;76.71;100583.09;5093595;28;20052;-60
2022/02/08 11:49:32;;;;;;;10.07;6.32;;;;;;;11.75;77.05;100584.66;5093430;28;20449;-62
2022/02/08 12:00:14;;;;;;;11.35;5.78;;;;;;;11.83;75.92;100591.28;5092817;28;20508;-62
2022/02/08 12:07:45;;;;;;;10.63;5.07;;;;;;;11.81;73.81;100621.31;5093124;28;20048;-59
2022/02/08 14:07:42;;;;;;;11.80;3.05;;;;;;;11.78;76.17;100616.16;5090615;28;20040;-60
2022/02/08 14:10:20;;;;;;;8.70;2.30;;;;;;;11.78;76.38;100630.19;5091021;28;20051;-59
2022/02/08 14:13:37;;;;;;;9.23;2.33;;;;;;;11.79;76.23;100623.16;5090666;28;20059;-60
2022/02/08 14:16:02;;;;;;;9.57;2.28;;;;;;;11.80;76.50;100625.72;5090663;28;20052;-62
2022/02/08 14:18:48;;;;;;;;;;;;;;;11.79;74.53;100631.91;5091160;28;20060;-59
2022/02/08 14:21:34;;;;;;;9.45;2.22;;;;;;;11.85;76.25;100628.97;5090624;28;19920;-59
2022/02/08 14:24:15;;;;;;;7.00;2.25;;;;;;;11.82;76.31;100626.47;5090656;28;20048;-60
2022/02/08 14:35:27;;;;;;;11.27;2.95;;;;;;;11.79;76.68;100634.56;5090945;28;20085;-60
2022/02/08 15:00:21;;;;;;;14.90;2.85;;;;;;;11.71;76.21;100640.19;5090462;28;20052;-59
2022/02/08 15:10:56;;;;;;;5.28;2.05;;;;;;;11.71;76.51;100636.72;5091014;28;20124;-59
2022/02/08 15:13:26;;;;;;;8.95;2.47;;;;;;;11.72;76.34;100633.13;5094122;28;20048;-61
2022/02/08 15:16:22;;;;;;;3.95;1.98;;;;;;;11.72;76.43;100641.03;5094089;28;20575;-60
2022/02/08 15:18:48;;;;;;;12.73;2.67;;;;;;;11.72;76.06;100641.03;5093835;28;20048;-58
2022/02/08 15:21:21;;;;;;;10.55;2.20;;;;;;;11.73;76.23;100640.13;5093799;28;20387;-60
2022/02/08 15:23:49;;;;;;;7.22;2.38;;;;;;;11.73;76.18;100635.69;5093758;28;20052;-60
2022/02/08 15:26:16;;;;;;;10.38;2.25;;;;;;;11.74;76.22;100639.22;5093731;28;20047;-59
2022/02/08 15:28:42;;;;;;;7.63;2.30;;;;;;;11.76;76.29;100642.59;5093727;28;20040;-60
2022/02/08 15:31:09;;;;;;;10.15;2.28;;;;;;;11.77;76.09;100643.47;5093360;28;20458;-61
2022/02/08 15:33:36;;;;;;;11.00;2.55;;;;;;;11.79;76.25;100647.75;5093341;28;20554;-59
2022/02/08 15:36:03;;;;;;;11.55;2.08;;;;;;;11.80;76.16;100644.19;5092346;28;20051;-59
2022/02/08 15:38:32;;;;;;;8.68;1.88;;;;;;;11.81;76.28;100652.97;5093617;28;20048;-60
2022/02/08 15:41:00;;;;;;;13.57;2.30;;;;;;;11.81;76.04;100651.16;5093209;28;20047;-59
2022/02/08 15:43:29;;;;;;;11.85;2.63;;;;;;;11.82;76.12;100641.47;5093609;28;20147;-59
2022/02/08 15:46:02;;;;;;;9.40;2.17;;;;;;;11.83;75.92;100651.09;5093349;28;20549;-60
2022/02/08 15:48:32;;;;;;;10.68;2.53;;;;;;;11.82;75.86;100641.47;5092449;28;20048;-59
2022/02/08 15:51:15;;;;;;;9.30;2.13;;;;;;;11.81;76.21;100651.16;5092067;28;20385;-58
2022/02/08 15:56:32;;;;;;;8.93;2.90;;;;;;;11.78;75.89;100650.47;5093171;28;20102;-61
2022/02/08 16:07:01;;;;;;;9.63;3.47;;;;;;;11.58;76.14;100652.25;5093099;28;20044;-61
2022/02/08 16:12:51;;;;;;;8.73;2.90;;;;;;;11.47;76.56;100642.19;5030159;28;20057;-59
2022/02/08 16:20:59;;;;;;;10.65;2.92;;;;;;;11.34;77.21;100655.94;5092548;28;20100;-60
2022/02/08 16:23:29;;;;;;;8.68;3.80;;;;;;;11.31;77.32;100658.72;5091985;28;20044;-60
2022/02/08 16:26:15;;;;;;;5.78;3.05;;;;;;;11.31;77.38;100657.88;5092836;28;20454;-59
2022/02/08 16:29:02;;;;;;;7.93;3.03;;;;;;;11.30;77.46;100664.94;5092601;28;20447;-58
2022/02/08 16:55:43;;;;;;;7.78;3.42;;;;;;;11.22;77.85;100682.88;5061092;28;20051;-59
2022/02/08 16:58:38;;;;;;;8.52;3.45;;;;;;;11.19;77.46;100681.25;5092018;28;20094;-60
2022/02/08 17:01:14;;;;;;;8.32;3.22;;;;;;;11.19;77.60;100683.00;5090328;28;20044;-59
2022/02/08 17:03:45;;;;;;;9.20;3.97;;;;;;;11.17;77.69;100680.44;5092132;28;20044;-64
2022/02/08 17:06:21;;;;;;;15.02;4.15;;;;;;;11.14;77.14;100683.19;5091693;28;20052;-61
2022/02/08 17:08:53;;;;;;;9.02;3.42;;;;;;;11.16;77.78;100686.63;5090732;28;20040;-59
2022/02/08 17:11:32;;;;;;;10.68;3.53;;;;;;;11.15;77.74;100674.38;5091050;28;20109;-61
2022/02/08 17:16:56;;;;;;;9.07;3.17;;;;;;;11.15;77.73;100684.06;5091498;28;20106;-59
2022/02/08 17:46:55;;;;;;;11.13;4.90;;;;;;;10.87;78.66;100706.38;5090725;28;20055;-59
2022/02/08 17:49:22;;;;;;;13.57;4.95;;;;;;;10.86;78.74;100716.03;5091033;28;20055;-60
2022/02/08 17:51:49;;;;;;;6.53;5.07;;;;;;;10.87;78.72;100715.09;5091093;28;20044;-59
2022/02/08 17:54:16;;;;;;;14.02;5.93;;;;;;;10.85;78.73;100719.59;5091368;28;20052;-58
2022/02/08 17:56:43;;;;;;;15.40;5.68;;;;;;;10.87;78.72;100732.69;5090801;28;20412;-61
2022/02/08 17:59:10;;;;;;;15.30;5.88;;;;;;;10.86;78.77;100723.06;5089638;28;20051;-59
2022/02/08 18:01:37;;;;;;;13.35;5.78;;;;;;;10.85;78.76;100727.50;5090029;28;20055;-59
2022/02/08 18:04:04;;;;;;;13.80;7.00;;;;;;;10.84;78.85;100720.50;5091318;28;20051;-59
2022/02/08 18:06:31;;;;;;;9.20;7.13;;;;;;;10.84;78.86;100732.81;5091272;28;20054;-60
2022/02/08 18:08:58;;;;;;;11.88;6.22;;;;;;;10.81;78.90;100739.91;5089936;28;20098;-61
2022/02/08 18:11:29;;;;;;;10.73;6.82;;;;;;;10.78;78.97;100742.69;5090099;28;20420;-62
2022/02/08 18:13:56;;;;;;;7.50;6.78;;;;;;;10.78;79.11;100742.69;5089898;28;20079;-60
2022/02/08 18:16:24;;;;;;;12.32;7.53;;;;;;;10.75;79.18;100734.06;5090501;28;20101;-59
2022/02/08 18:18:50;;;;;;;11.70;7.53;;;;;;;10.75;79.16;100734.91;5091012;28;20044;-59
2022/02/08 18:21:26;;;;;;;12.00;7.72;;;;;;;10.74;79.24;100750.78;5090533;28;20569;-61
2022/02/08 18:57:22;;;;;;;16.58;10.70;;;;;;;10.70;79.70;100750.06;5074283;28;20044;-61